createdAt,value
2022-12-11T00:03:46.278Z,1.50
2022-12-11T00:08:57.014Z,1.50
2022-12-11T00:14:04.132Z,1.60
2022-12-11T00:19:11.022Z,1.60
2022-12-11T00:24:18.291Z,1.50
2022-12-11T00:29:25.534Z,1.50
2022-12-11T00:34:32.523Z,1.40
2022-12-11T00:39:40.784Z,1.50
2022-12-11T00:44:47.469Z,1.30
2022-12-11T00:49:54.173Z,1.40
2022-12-11T00:55:01.201Z,1.40
2022-12-11T01:00:09.424Z,1.30
2022-12-11T01:05:16.374Z,1.40
2022-12-11T01:10:26.427Z,1.30
2022-12-11T01:15:41.337Z,1.40
2022-12-11T01:20:47.000Z,1.30
2022-12-11T01:25:53.888Z,1.30
2022-12-11T01:31:00.572Z,1.30
2022-12-11T01:36:14.898Z,1.30
2022-12-11T01:41:21.724Z,1.30
2022-12-11T01:46:30.226Z,1.30
2022-12-11T01:51:44.011Z,1.30
2022-12-11T01:56:51.895Z,1.10
2022-12-11T02:02:02.799Z,1.10
2022-12-11T02:07:11.514Z,1.20
2022-12-11T02:12:37.442Z,1.20
2022-12-11T02:17:48.682Z,1.20
2022-12-11T02:23:18.128Z,1.30
2022-12-11T02:28:46.730Z,1.10
2022-12-11T02:34:15.431Z,1.00
2022-12-11T02:39:24.225Z,1.10
2022-12-11T02:44:34.141Z,1.20
2022-12-11T02:49:44.084Z,1.10
2022-12-11T02:54:53.738Z,1.20
2022-12-11T03:00:00.588Z,1.10
2022-12-11T03:05:09.011Z,1.10
2022-12-11T03:10:19.328Z,1.10
2022-12-11T03:15:33.351Z,1.10
2022-12-11T03:20:47.712Z,1.10
2022-12-11T03:26:07.050Z,1.10
2022-12-11T03:31:20.740Z,1.10
2022-12-11T03:36:29.284Z,1.10
2022-12-11T03:41:37.868Z,1.20
2022-12-11T03:46:47.018Z,1.20
2022-12-11T03:51:56.730Z,0.90
2022-12-11T03:57:06.185Z,0.80
2022-12-11T04:02:13.275Z,0.70
2022-12-11T04:07:20.385Z,0.70
2022-12-11T04:12:28.071Z,0.70
2022-12-11T04:17:55.223Z,0.70
2022-12-11T04:23:21.009Z,0.50
2022-12-11T04:28:28.017Z,0.50
2022-12-11T04:33:34.846Z,0.70
2022-12-11T04:38:42.635Z,0.60
2022-12-11T04:43:49.586Z,0.40
2022-12-11T04:48:57.929Z,0.40
2022-12-11T04:54:05.065Z,0.40
2022-12-11T04:59:12.037Z,0.30
2022-12-11T05:04:18.822Z,0.40
2022-12-11T05:09:26.463Z,0.40
2022-12-11T05:14:33.325Z,0.20
2022-12-11T05:19:40.364Z,0.30
2022-12-11T05:24:47.972Z,0.00
2022-12-11T05:29:59.413Z,0.00
2022-12-11T05:35:04.433Z,0.10
2022-12-11T05:40:13.130Z,0.40
2022-12-11T05:45:19.945Z,0.40
2022-12-11T05:50:27.294Z,0.00
2022-12-11T05:55:38.328Z,-0.20
2022-12-11T06:00:46.822Z,0.00
2022-12-11T06:05:53.955Z,0.10
2022-12-11T06:11:01.997Z,-0.10
2022-12-11T06:16:10.512Z,0.20
2022-12-11T06:21:21.417Z,0.10
2022-12-11T06:26:29.122Z,0.10
2022-12-11T06:31:36.166Z,0.30
2022-12-11T06:36:43.096Z,0.30
2022-12-11T06:41:50.315Z,0.10
2022-12-11T06:46:56.958Z,0.20
2022-12-11T06:52:03.611Z,0.20
2022-12-11T06:57:12.601Z,0.30
2022-12-11T07:02:21.386Z,0.20
2022-12-11T07:07:28.682Z,0.30
2022-12-11T07:12:35.618Z,0.30
2022-12-11T07:17:42.729Z,0.10
2022-12-11T07:22:49.495Z,0.10
2022-12-11T07:27:56.276Z,0.20
2022-12-11T07:33:03.263Z,0.10
2022-12-11T07:38:11.104Z,0.00
2022-12-11T07:43:18.171Z,-0.20
2022-12-11T07:48:25.289Z,-0.20
2022-12-11T07:53:31.998Z,0.00
2022-12-11T07:58:39.479Z,0.10
2022-12-11T08:03:46.773Z,0.20
2022-12-11T08:08:56.033Z,0.10
2022-12-11T08:14:02.867Z,0.30
2022-12-11T08:19:09.439Z,0.50
2022-12-11T08:24:18.290Z,0.60
2022-12-11T08:29:25.915Z,0.40
2022-12-11T08:34:32.823Z,0.40
2022-12-11T08:39:40.128Z,0.50
2022-12-11T08:44:46.998Z,0.70
2022-12-11T08:49:53.845Z,0.60
2022-12-11T08:55:01.125Z,0.60
2022-12-11T09:00:14.242Z,0.60
2022-12-11T09:05:21.407Z,0.90
2022-12-11T09:10:28.524Z,0.80
2022-12-11T09:15:36.420Z,1.00
2022-12-11T09:20:43.405Z,1.10
2022-12-11T09:25:51.421Z,1.10
2022-12-11T09:30:58.696Z,1.20
2022-12-11T09:36:07.746Z,1.20
2022-12-11T09:41:40.814Z,1.20
2022-12-11T09:46:48.829Z,1.20
2022-12-11T09:52:09.216Z,1.20
2022-12-11T09:57:30.020Z,1.10
2022-12-11T10:03:09.018Z,1.40
2022-12-11T10:08:44.456Z,1.30
2022-12-11T10:14:33.348Z,1.40
2022-12-11T10:19:42.610Z,1.40
2022-12-11T10:25:11.539Z,1.50
2022-12-11T10:30:21.802Z,1.60
2022-12-11T10:35:38.517Z,1.60
2022-12-11T10:40:49.941Z,1.30
2022-12-11T10:45:57.867Z,1.30
2022-12-11T10:51:08.282Z,1.50
2022-12-11T10:56:15.712Z,1.50
2022-12-11T11:01:26.268Z,1.40
2022-12-11T11:06:33.320Z,1.40
2022-12-11T11:11:40.927Z,1.10
2022-12-11T11:16:50.848Z,1.20
2022-12-11T11:22:04.598Z,1.30
2022-12-11T11:27:37.296Z,1.40
2022-12-11T11:32:44.557Z,1.50
2022-12-11T11:38:20.855Z,1.60
2022-12-11T11:43:47.826Z,1.50
2022-12-11T11:49:17.772Z,1.40
2022-12-11T11:54:49.729Z,1.10
2022-12-11T12:00:05.216Z,1.10
2022-12-11T12:05:21.085Z,1.10
2022-12-11T12:10:49.727Z,1.20
2022-12-11T12:16:02.121Z,1.20
2022-12-11T12:21:31.291Z,1.30
2022-12-11T12:26:47.338Z,1.10
2022-12-11T12:32:13.196Z,0.80
2022-12-11T12:37:54.050Z,0.80
2022-12-11T12:43:29.189Z,0.80
2022-12-11T12:48:36.097Z,0.90
2022-12-11T12:53:47.393Z,1.10
2022-12-11T12:58:55.046Z,0.90
2022-12-11T13:04:32.446Z,0.70
2022-12-11T13:09:26.185Z,0.70
2022-12-11T13:14:34.852Z,0.60
2022-12-11T13:19:42.903Z,0.70
2022-12-11T13:25:02.132Z,0.80
2022-12-11T13:30:25.142Z,0.70
2022-12-11T13:35:34.728Z,0.40
2022-12-11T13:40:44.478Z,0.40
2022-12-11T13:46:00.463Z,0.40
2022-12-11T13:51:08.814Z,0.50
2022-12-11T13:56:23.297Z,0.50
2022-12-11T14:01:35.429Z,0.50
2022-12-11T14:06:42.682Z,0.50
2022-12-11T14:11:56.435Z,0.60
2022-12-11T14:16:59.091Z,0.40
2022-12-11T14:22:08.483Z,0.40
2022-12-11T14:27:19.283Z,0.20
2022-12-11T14:32:38.668Z,0.10
2022-12-11T14:37:45.840Z,-0.20
2022-12-11T14:43:00.430Z,-0.10
2022-12-11T14:48:17.328Z,-0.30
2022-12-11T14:53:28.566Z,-0.40
2022-12-11T14:58:41.423Z,-0.30
2022-12-11T15:03:48.218Z,-0.20
2022-12-11T15:08:55.755Z,-0.50
2022-12-11T15:14:05.646Z,-0.80
2022-12-11T15:19:28.789Z,-0.90
2022-12-11T15:24:43.886Z,-0.80
2022-12-11T15:29:50.665Z,-0.70
2022-12-11T15:35:00.707Z,-0.60
2022-12-11T15:40:09.118Z,-0.50
2022-12-11T15:45:29.080Z,-0.60
2022-12-11T15:50:35.769Z,-0.50
2022-12-11T15:55:42.687Z,-0.60
2022-12-11T16:00:49.654Z,-0.50
2022-12-11T16:05:56.610Z,-0.60
2022-12-11T16:11:03.393Z,-0.70
2022-12-11T16:16:10.659Z,-0.70
2022-12-11T16:21:21.389Z,-1.00
2022-12-11T16:26:26.925Z,-0.90
2022-12-11T16:31:34.059Z,-0.80
2022-12-11T16:36:40.847Z,-0.90
2022-12-11T16:41:47.733Z,-1.10
2022-12-11T16:46:56.000Z,-1.20
2022-12-11T16:52:02.732Z,-1.00
2022-12-11T16:57:10.936Z,-1.20
2022-12-11T17:02:18.607Z,-1.20
2022-12-11T17:07:25.506Z,-1.10
2022-12-11T17:12:32.728Z,-0.90
2022-12-11T17:17:41.512Z,-1.10
2022-12-11T17:22:48.362Z,-1.00
2022-12-11T17:27:55.088Z,-0.90
2022-12-11T17:33:03.183Z,-1.00
2022-12-11T17:38:10.140Z,-0.80
2022-12-11T17:43:17.210Z,-0.90
2022-12-11T17:48:24.239Z,-1.00
2022-12-11T17:53:31.258Z,-1.00
2022-12-11T17:58:38.202Z,-1.10
2022-12-11T18:03:45.221Z,-1.00
2022-12-11T18:08:52.245Z,-1.10
2022-12-11T18:13:59.174Z,-1.10
2022-12-11T18:19:08.836Z,-1.10
2022-12-11T18:24:15.574Z,-1.10
2022-12-11T18:29:22.253Z,-1.30
2022-12-11T18:34:29.686Z,-1.40
2022-12-11T18:39:37.018Z,-1.40
2022-12-11T18:44:43.731Z,-1.40
2022-12-11T18:49:50.464Z,-1.40
2022-12-11T18:54:57.687Z,-1.30
2022-12-11T19:00:07.899Z,-1.40
2022-12-11T19:05:15.345Z,-1.50
2022-12-11T19:10:22.088Z,-1.50
2022-12-11T19:15:29.075Z,-1.70
2022-12-11T19:21:03.245Z,-1.90
2022-12-11T19:25:49.346Z,-1.80
2022-12-11T19:30:56.072Z,-1.80
2022-12-11T19:36:10.303Z,-1.90
2022-12-11T19:41:23.681Z,-2.20
2022-12-11T19:46:31.210Z,-2.20
2022-12-11T19:51:41.401Z,-2.20
2022-12-11T19:56:48.285Z,-2.30
2022-12-11T20:01:55.277Z,-2.30
2022-12-11T20:07:02.103Z,-2.30
2022-12-11T20:12:10.711Z,-2.40
2022-12-11T20:17:17.435Z,-2.50
2022-12-11T20:22:24.182Z,-2.60
2022-12-11T20:27:31.158Z,-2.70
2022-12-11T20:32:37.830Z,-2.70
2022-12-11T20:37:44.760Z,-2.80
2022-12-11T20:42:51.705Z,-2.60
2022-12-11T20:47:58.761Z,-2.50
2022-12-11T20:53:06.485Z,-2.40
2022-12-11T20:58:13.264Z,-2.30
2022-12-11T21:03:20.327Z,-2.30
2022-12-11T21:08:27.877Z,-2.20
2022-12-11T21:13:36.379Z,-2.40
2022-12-11T21:18:44.857Z,-2.10
2022-12-11T21:23:52.389Z,-2.20
2022-12-11T21:28:59.462Z,-2.10
2022-12-11T21:34:07.011Z,-2.30
2022-12-11T21:39:14.128Z,-2.40
2022-12-11T21:49:30.680Z,-2.40
2022-12-11T21:54:37.884Z,-2.40
2022-12-11T21:59:44.711Z,-2.40
2022-12-11T22:04:51.746Z,-2.30
2022-12-11T22:09:58.731Z,-2.10
2022-12-11T22:15:08.046Z,-2.20
2022-12-11T22:20:15.132Z,-2.10
2022-12-11T22:25:22.013Z,-2.10
2022-12-11T22:30:28.954Z,-2.20
2022-12-11T22:35:36.178Z,-2.10
2022-12-11T22:40:44.165Z,-2.10
2022-12-11T22:45:51.279Z,-2.20
2022-12-11T22:50:58.591Z,-2.20
2022-12-11T22:56:10.656Z,-2.40
2022-12-11T23:01:21.927Z,-2.20
2022-12-11T23:06:28.837Z,-2.30
2022-12-11T23:11:38.745Z,-2.20
2022-12-11T23:16:46.956Z,-2.20
2022-12-11T23:21:54.326Z,-2.30
2022-12-11T23:27:02.826Z,-2.20
2022-12-11T23:32:10.180Z,-2.20
2022-12-11T23:37:17.057Z,-2.20
2022-12-11T23:42:24.034Z,-2.30
2022-12-11T23:47:31.250Z,-2.20
2022-12-11T23:52:38.025Z,-2.10
2022-12-11T23:57:44.753Z,-2.20
